createdAt,value
2019-05-16T00:03:39.442Z,4.17
2019-05-16T00:08:41.562Z,5.83
2019-05-16T00:13:42.938Z,4.83
2019-05-16T00:18:44.375Z,4.60
2019-05-16T00:23:45.738Z,4.70
2019-05-16T00:28:48.505Z,6.80
2019-05-16T00:33:48.813Z,5.57
2019-05-16T00:38:49.845Z,6.57
2019-05-16T00:43:51.223Z,6.63
2019-05-16T00:48:52.586Z,5.30
2019-05-16T00:53:53.946Z,4.90
2019-05-16T00:58:55.305Z,5.70
2019-05-16T01:03:58.566Z,5.60
2019-05-16T01:08:58.073Z,5.90
2019-05-16T01:13:59.448Z,6.63
2019-05-16T01:19:00.776Z,6.03
2019-05-16T01:24:02.143Z,5.47
2019-05-16T01:29:03.554Z,5.20
2019-05-16T01:34:07.652Z,6.20
2019-05-16T01:39:07.974Z,5.33
2019-05-16T01:44:08.496Z,7.70
2019-05-16T01:49:09.874Z,6.63
2019-05-16T01:54:11.232Z,5.83
2019-05-16T01:59:13.033Z,6.73
2019-05-16T02:04:14.455Z,6.37
2019-05-16T02:09:15.775Z,5.20
2019-05-16T02:14:17.686Z,6.87
2019-05-16T02:19:18.810Z,6.23
2019-05-16T02:24:19.776Z,8.27
2019-05-16T02:29:21.158Z,6.70
2019-05-16T02:34:23.258Z,6.43
2019-05-16T02:39:30.497Z,8.67
2019-05-16T02:44:32.206Z,7.07
2019-05-16T02:49:34.184Z,6.20
2019-05-16T02:54:35.202Z,6.43
2019-05-16T02:59:36.597Z,6.43
2019-05-16T03:04:43.214Z,7.63
2019-05-16T03:09:41.068Z,9.03
2019-05-16T03:14:41.978Z,8.03
2019-05-16T03:19:45.020Z,6.80
2019-05-16T03:24:46.428Z,9.67
2019-05-16T03:29:50.462Z,9.17
2019-05-16T03:34:54.122Z,7.83
2019-05-16T03:39:51.491Z,7.37
2019-05-16T03:44:52.055Z,7.03
2019-05-16T03:49:54.205Z,7.50
2019-05-16T03:54:55.576Z,8.03
2019-05-16T03:59:57.001Z,7.50
2019-05-16T04:05:01.377Z,8.70
2019-05-16T04:10:02.276Z,7.30
2019-05-16T04:15:01.970Z,7.50
2019-05-16T04:20:02.638Z,7.63
2019-05-16T04:25:04.758Z,7.30
2019-05-16T04:30:06.198Z,7.97
2019-05-16T04:35:10.944Z,6.87
2019-05-16T04:40:11.867Z,7.23
2019-05-16T04:45:11.861Z,7.43
2019-05-16T04:50:12.257Z,7.20
2019-05-16T04:55:13.176Z,8.13
2019-05-16T05:00:14.568Z,8.00
2019-05-16T05:05:16.658Z,7.97
2019-05-16T05:10:20.631Z,8.07
2019-05-16T05:15:21.225Z,7.63
2019-05-16T05:20:21.194Z,8.70
2019-05-16T05:25:22.340Z,8.03
2019-05-16T05:30:23.699Z,7.20
2019-05-16T05:35:25.006Z,7.50
2019-05-16T05:40:27.076Z,9.90
2019-05-16T05:45:30.507Z,9.43
2019-05-16T05:50:30.717Z,8.90
2019-05-16T05:55:31.979Z,8.07
2019-05-16T06:00:34.417Z,9.27
2019-05-16T06:05:36.519Z,8.87
2019-05-16T06:10:37.911Z,10.37
2019-05-16T06:15:40.010Z,8.53
2019-05-16T06:20:40.684Z,10.47
2019-05-16T06:25:42.083Z,9.47
2019-05-16T06:30:43.480Z,9.63
2019-05-16T06:35:44.887Z,9.43
2019-05-16T06:40:49.034Z,9.23
2019-05-16T06:45:47.688Z,10.23
2019-05-16T06:50:51.419Z,7.83
2019-05-16T06:55:51.226Z,9.60
2019-05-16T07:00:52.915Z,9.30
2019-05-16T07:05:53.935Z,10.90
2019-05-16T07:10:55.245Z,9.83
2019-05-16T07:15:56.553Z,7.77
2019-05-16T07:21:00.034Z,11.13
2019-05-16T07:26:00.775Z,7.20
2019-05-16T07:31:14.194Z,7.17
2019-05-16T07:36:02.890Z,6.10
2019-05-16T07:41:04.270Z,6.33
2019-05-16T07:46:06.353Z,9.17
2019-05-16T07:51:10.114Z,6.60
2019-05-16T07:56:10.560Z,8.20
2019-05-16T08:01:12.529Z,6.23
2019-05-16T08:06:11.862Z,5.33
2019-05-16T08:11:13.259Z,5.47
2019-05-16T08:16:14.709Z,5.00
2019-05-16T08:26:17.487Z,5.83
2019-05-16T08:31:21.400Z,5.63
2019-05-16T08:36:21.181Z,5.40
2019-05-16T08:41:22.265Z,5.53
2019-05-16T08:46:23.133Z,5.87
2019-05-16T08:51:25.250Z,6.10
2019-05-16T08:56:26.546Z,4.47
2019-05-16T09:01:27.929Z,6.00
2019-05-16T09:06:32.057Z,5.50
2019-05-16T09:10:26.225Z,5.20
2019-05-16T09:11:41.433Z,6.67
2019-05-16T09:16:32.896Z,5.50
2019-05-16T09:21:34.303Z,4.47
2019-05-16T09:26:38.102Z,11.00
2019-05-16T09:31:38.541Z,4.67
2019-05-16T09:36:38.834Z,4.00
2019-05-16T09:41:55.011Z,5.27
2019-05-16T09:46:43.060Z,5.47
2019-05-16T09:51:46.523Z,4.63
2019-05-16T09:56:46.431Z,6.00
2019-05-16T10:01:47.758Z,4.07
2019-05-16T10:06:48.607Z,5.10
2019-05-16T10:12:05.503Z,5.17
2019-05-16T10:16:51.685Z,6.63
2019-05-16T10:21:53.809Z,5.53
2019-05-16T10:26:57.042Z,7.70
2019-05-16T10:31:56.975Z,5.10
2019-05-16T10:36:57.974Z,4.07
2019-05-16T10:41:59.344Z,4.07
2019-05-16T10:47:01.427Z,6.60
2019-05-16T10:52:02.868Z,6.80
2019-05-16T10:57:04.273Z,6.07
2019-05-16T11:02:10.837Z,6.87
2019-05-16T11:07:12.298Z,6.17
2019-05-16T11:12:13.684Z,7.00
2019-05-16T11:17:18.818Z,6.30
2019-05-16T11:22:16.397Z,5.77
2019-05-16T11:27:18.487Z,6.27
2019-05-16T11:32:19.814Z,5.37
2019-05-16T11:37:21.219Z,6.00
2019-05-16T11:42:22.583Z,6.17
2019-05-16T11:47:23.993Z,5.10
2019-05-16T11:52:25.337Z,4.60
2019-05-16T11:57:26.788Z,5.77
2019-05-16T12:02:28.181Z,5.77
2019-05-16T12:07:33.540Z,6.30
2019-05-16T12:12:30.896Z,6.70
2019-05-16T12:17:32.343Z,6.27
2019-05-16T12:22:33.722Z,5.27
2019-05-16T12:27:41.711Z,6.10
2019-05-16T12:32:36.781Z,5.40
2019-05-16T12:37:38.555Z,5.70
2019-05-16T12:42:39.895Z,6.87
2019-05-16T12:47:41.260Z,6.63
2019-05-16T12:52:42.553Z,7.13
2019-05-16T12:57:43.908Z,7.57
2019-05-16T13:02:47.293Z,7.67
2019-05-16T13:07:47.654Z,6.53
2019-05-16T13:12:48.054Z,7.40
2019-05-16T13:17:49.400Z,8.47
2019-05-16T13:22:50.730Z,6.83
2019-05-16T13:27:52.058Z,6.47
2019-05-16T13:32:53.468Z,5.67
2019-05-16T13:37:54.836Z,7.10
2019-05-16T13:42:57.313Z,6.07
2019-05-16T14:49:03.709Z,6.33
2019-05-16T14:54:07.548Z,6.17
2019-05-16T14:59:08.245Z,6.80
2019-05-16T15:04:08.096Z,4.90
2019-05-16T15:09:09.424Z,7.47
2019-05-16T15:14:10.808Z,6.03
2019-05-16T15:19:12.184Z,6.80
2019-05-16T15:24:13.485Z,5.77
2019-05-16T15:29:16.533Z,6.80
2019-05-16T15:34:17.820Z,7.77
2019-05-16T15:39:19.177Z,6.17
2019-05-16T15:44:20.568Z,4.67
2019-05-16T15:49:21.860Z,6.23
2019-05-16T15:54:23.993Z,6.73
2019-05-16T15:59:27.240Z,7.83
2019-05-16T16:41:51.664Z,9.95
2019-05-16T17:11:01.958Z,8.73
2019-05-16T17:16:03.228Z,7.70
2019-05-16T17:21:04.508Z,8.90
2019-05-16T17:26:07.280Z,8.10
2019-05-16T17:31:07.422Z,9.10
2019-05-16T17:36:09.424Z,8.87
2019-05-16T17:41:10.025Z,8.80
2019-05-16T17:46:11.365Z,8.20
2019-05-16T17:51:13.338Z,9.27
2019-05-16T17:56:17.137Z,11.20
2019-05-16T18:01:17.206Z,9.40
2019-05-16T18:06:18.206Z,10.57
2019-05-16T18:11:19.583Z,10.53
2019-05-16T18:16:21.018Z,9.63
2019-05-16T18:21:22.402Z,10.20
2019-05-16T18:26:23.720Z,9.70
2019-05-16T18:31:26.641Z,11.53
2019-05-16T18:36:27.793Z,8.33
2019-05-16T18:41:29.164Z,10.10
2019-05-16T18:46:30.522Z,8.10
2019-05-16T18:51:32.186Z,10.37
2019-05-16T18:56:36.173Z,9.73
2019-05-16T19:01:37.563Z,9.40
2019-05-16T19:06:37.593Z,11.43
2019-05-16T19:11:39.749Z,11.87
2019-05-16T19:16:41.151Z,10.00
2019-05-16T19:21:42.454Z,9.57
2019-05-16T19:26:43.805Z,10.80
2019-05-16T19:31:46.990Z,9.93
2019-05-16T19:36:47.001Z,9.53
2019-05-16T19:41:48.047Z,9.40
2019-05-16T19:46:49.629Z,9.60
2019-05-16T19:52:04.118Z,9.27
2019-05-16T19:57:09.917Z,10.23
2019-05-16T20:02:11.827Z,8.90
2019-05-16T20:07:16.762Z,11.63
2019-05-16T20:12:19.070Z,9.03
2019-05-16T20:17:21.273Z,10.07
2019-05-16T20:22:26.122Z,8.87
2019-05-16T20:27:27.460Z,11.53
2019-05-16T20:32:28.248Z,9.67
2019-05-16T20:37:29.521Z,11.33
2019-05-16T20:42:30.823Z,10.93
2019-05-16T20:47:32.241Z,10.90
2019-05-16T20:52:33.553Z,9.77
2019-05-16T20:57:37.301Z,9.77
2019-05-16T21:02:37.879Z,9.83
2019-05-16T21:07:37.792Z,10.63
2019-05-16T21:12:40.371Z,12.20
2019-05-16T21:17:40.474Z,12.30
2019-05-16T21:22:41.781Z,10.80
2019-05-16T21:27:46.341Z,11.23
2019-05-16T21:32:47.130Z,11.30
2019-05-16T21:37:46.836Z,9.73
2019-05-16T21:42:48.057Z,11.13
2019-05-16T21:47:50.137Z,14.70
2019-05-16T21:52:52.210Z,11.20
2019-05-16T21:57:54.239Z,12.73
2019-05-16T22:02:57.315Z,13.47
2019-05-16T22:07:56.960Z,12.47
2019-05-16T22:12:58.334Z,11.53
2019-05-16T22:17:59.736Z,11.97
2019-05-16T22:23:01.154Z,10.00
2019-05-16T22:28:02.971Z,11.40
2019-05-16T22:33:08.953Z,12.40
2019-05-16T22:38:06.559Z,11.97
2019-05-16T22:43:10.181Z,11.10
2019-05-16T22:48:08.676Z,12.97
2019-05-16T22:53:10.021Z,13.57
2019-05-16T22:58:12.152Z,13.60
2019-05-16T23:03:13.566Z,14.00
2019-05-16T23:08:16.433Z,10.50
2019-05-16T23:13:23.832Z,15.23
2019-05-16T23:18:26.695Z,15.33
2019-05-16T23:23:26.733Z,16.33
2019-05-16T23:28:28.050Z,16.07
2019-05-16T23:33:29.360Z,17.23
2019-05-16T23:38:30.712Z,15.30
2019-05-16T23:43:32.088Z,16.50
2019-05-16T23:48:33.390Z,16.20
2019-05-16T23:53:36.941Z,15.13
2019-05-16T23:58:36.980Z,15.17
